CFG1163 UUBW-ULLI
Flight info
| Callsign | CFG1163 |
|---|---|
| Flight time | 1h 21m |
| Altitude | 38000 |
| Route | SUNUN2B SUNUN M869 RAVKA N50 NUDKO T561 ODATI T875 GENPA GENPA1V |
| Aircraft | A20N/M-SDE2E3FGHIRWXY/LB1 |
Departure
| Time | 2026-04-30 20:32 |
|---|---|
| Airport | Zhukovsky International Airport (UUBW) |
Arrival
| Time | 2026-04-30 21:54 |
|---|---|
| Airport | Pulkovo Airport (ULLI) |
| Time | Latitude | Longitude | Altitude | Speed | Heading |
|---|---|---|---|---|---|
| 2026-04-30 20:00 | 55.56354 | 38.12058 | 388 ft | 0 kts | 223° |
| 2026-04-30 20:18 | 55.56361 | 38.12069 | 401 ft | 2 kts | 223° |
| 2026-04-30 20:18 | 55.56380 | 38.12100 | 398 ft | 4 kts | 213° |
| 2026-04-30 20:18 | 55.56407 | 38.12120 | 400 ft | 4 kts | 185° |
| 2026-04-30 20:19 | 55.56432 | 38.12102 | 400 ft | 4 kts | 111° |
| 2026-04-30 20:19 | 55.56443 | 38.12057 | 396 ft | 0 kts | 127° |
| 2026-04-30 20:23 | 55.56421 | 38.12098 | 401 ft | 18 kts | 135° |
| 2026-04-30 20:23 | 55.56291 | 38.12349 | 401 ft | 28 kts | 133° |
| 2026-04-30 20:23 | 55.56189 | 38.12544 | 401 ft | 23 kts | 131° |
| 2026-04-30 20:23 | 55.56084 | 38.12790 | 400 ft | 27 kts | 120° |
| 2026-04-30 20:24 | 55.56001 | 38.12990 | 401 ft | 20 kts | 131° |
| 2026-04-30 20:24 | 55.55905 | 38.13183 | 401 ft | 22 kts | 131° |
| 2026-04-30 20:24 | 55.55801 | 38.13394 | 399 ft | 24 kts | 131° |
| 2026-04-30 20:24 | 55.55688 | 38.13624 | 401 ft | 26 kts | 131° |
| 2026-04-30 20:25 | 55.55464 | 38.14060 | 400 ft | 20 kts | 131° |
| 2026-04-30 20:25 | 55.55368 | 38.14258 | 401 ft | 22 kts | 131° |
| 2026-04-30 20:26 | 55.55144 | 38.14694 | 401 ft | 26 kts | 132° |
| 2026-04-30 20:26 | 55.54911 | 38.15161 | 401 ft | 25 kts | 130° |
| 2026-04-30 20:26 | 55.54792 | 38.15399 | 401 ft | 27 kts | 131° |
| 2026-04-30 20:27 | 55.54587 | 38.15807 | 400 ft | 22 kts | 131° |
| 2026-04-30 20:27 | 55.54371 | 38.16245 | 401 ft | 24 kts | 131° |
| 2026-04-30 20:28 | 55.54281 | 38.16503 | 401 ft | 11 kts | 63° |
| 2026-04-30 20:28 | 55.54306 | 38.16553 | 402 ft | 0 kts | 39° |
| 2026-04-30 20:30 | 55.54327 | 38.16584 | 399 ft | 9 kts | 39° |
| 2026-04-30 20:30 | 55.54462 | 38.16613 | 402 ft | 0 kts | 313° |
| 2026-04-30 20:32 | 55.55220 | 38.15104 | 397 ft | 159 kts | 311° |
| 2026-04-30 20:32 | 55.57046 | 38.11568 | 1419 ft | 214 kts | 312° |
| 2026-04-30 20:33 | 55.58017 | 38.09626 | 1832 ft | 201 kts | 312° |
| 2026-04-30 20:33 | 55.59565 | 38.05764 | 1968 ft | 197 kts | 281° |
| 2026-04-30 20:33 | 55.59372 | 38.03371 | 2328 ft | 204 kts | 242° |
| 2026-04-30 20:34 | 55.57117 | 38.00643 | 4383 ft | 203 kts | 183° |
| 2026-04-30 20:34 | 55.54656 | 38.02886 | 6206 ft | 210 kts | 125° |
| 2026-04-30 20:35 | 55.53759 | 38.04912 | 7117 ft | 213 kts | 127° |
| 2026-04-30 20:35 | 55.52793 | 38.06927 | 8047 ft | 216 kts | 129° |
| 2026-04-30 20:35 | 55.50771 | 38.10941 | 9909 ft | 221 kts | 130° |
| 2026-04-30 20:36 | 55.49886 | 38.13157 | 10738 ft | 223 kts | 108° |
| 2026-04-30 20:36 | 55.49754 | 38.15846 | 11508 ft | 223 kts | 75° |
| 2026-04-30 20:36 | 55.51382 | 38.20350 | 13110 ft | 224 kts | 26° |
| 2026-04-30 20:37 | 55.52886 | 38.20969 | 13877 ft | 226 kts | 355° |
| 2026-04-30 20:37 | 55.54395 | 38.20192 | 14572 ft | 230 kts | 334° |
| 2026-04-30 20:37 | 55.55872 | 38.18933 | 14975 ft | 249 kts | 335° |
| 2026-04-30 20:37 | 55.57519 | 38.17576 | 15265 ft | 273 kts | 335° |
| 2026-04-30 20:38 | 55.59234 | 38.15840 | 15548 ft | 296 kts | 319° |
| 2026-04-30 20:38 | 55.60456 | 38.12952 | 16132 ft | 306 kts | 294° |
| 2026-04-30 20:38 | 55.60901 | 38.09186 | 16923 ft | 313 kts | 269° |
| 2026-04-30 20:39 | 55.59751 | 38.01720 | 18450 ft | 324 kts | 234° |
| 2026-04-30 20:39 | 55.58121 | 37.98947 | 19036 ft | 332 kts | 213° |
| 2026-04-30 20:39 | 55.56112 | 37.96837 | 19634 ft | 338 kts | 211° |
| 2026-04-30 20:40 | 55.53182 | 37.90479 | 20790 ft | 343 kts | 254° |
| 2026-04-30 20:40 | 55.52508 | 37.86421 | 21409 ft | 346 kts | 258° |
| 2026-04-30 20:40 | 55.51911 | 37.82270 | 22021 ft | 351 kts | 259° |
| 2026-04-30 20:41 | 55.50692 | 37.73794 | 23228 ft | 361 kts | 259° |
| 2026-04-30 20:41 | 55.49864 | 37.69556 | 23806 ft | 370 kts | 250° |
| 2026-04-30 20:41 | 55.48807 | 37.65396 | 24310 ft | 374 kts | 249° |
| 2026-04-30 20:41 | 55.47738 | 37.61194 | 24835 ft | 376 kts | 249° |
| 2026-04-30 20:42 | 55.46516 | 37.57084 | 25323 ft | 384 kts | 238° |
| 2026-04-30 20:42 | 55.44753 | 37.53491 | 25800 ft | 392 kts | 223° |
| 2026-04-30 20:42 | 55.40275 | 37.47806 | 26752 ft | 400 kts | 216° |
| 2026-04-30 20:43 | 55.38014 | 37.45030 | 27214 ft | 403 kts | 216° |
| 2026-04-30 20:43 | 55.35707 | 37.42173 | 27675 ft | 407 kts | 217° |
| 2026-04-30 20:43 | 55.33517 | 37.39030 | 28116 ft | 407 kts | 230° |
| 2026-04-30 20:44 | 55.31061 | 37.30370 | 28923 ft | 396 kts | 266° |
| 2026-04-30 20:44 | 55.30922 | 37.25557 | 29154 ft | 397 kts | 277° |
| 2026-04-30 20:44 | 55.31270 | 37.15653 | 29383 ft | 415 kts | 282° |
| 2026-04-30 20:45 | 55.32616 | 37.05812 | 30113 ft | 413 kts | 296° |
| 2026-04-30 20:45 | 55.33695 | 37.01134 | 30473 ft | 415 kts | 297° |
| 2026-04-30 20:45 | 55.34773 | 36.96410 | 30814 ft | 418 kts | 296° |
| 2026-04-30 20:46 | 55.39421 | 36.83830 | 31756 ft | 409 kts | 327° |
| 2026-04-30 20:46 | 55.41883 | 36.81353 | 32044 ft | 406 kts | 341° |
| 2026-04-30 20:47 | 55.47421 | 36.79691 | 32593 ft | 408 kts | 359° |
| 2026-04-30 20:47 | 55.50271 | 36.79495 | 32871 ft | 411 kts | 359° |
| 2026-04-30 20:48 | 55.56031 | 36.79032 | 33408 ft | 418 kts | 357° |
| 2026-04-30 20:48 | 55.58916 | 36.78227 | 33652 ft | 422 kts | 347° |
| 2026-04-30 20:48 | 55.61667 | 36.76517 | 33895 ft | 428 kts | 337° |
| 2026-04-30 20:48 | 55.64274 | 36.73905 | 34139 ft | 433 kts | 327° |
| 2026-04-30 20:49 | 55.66740 | 36.70805 | 34360 ft | 436 kts | 327° |
| 2026-04-30 20:49 | 55.69223 | 36.67702 | 34604 ft | 437 kts | 327° |
| 2026-04-30 20:49 | 55.71718 | 36.64587 | 34883 ft | 438 kts | 327° |
| 2026-04-30 20:50 | 55.76697 | 36.58349 | 35429 ft | 438 kts | 327° |
| 2026-04-30 20:50 | 55.79176 | 36.55231 | 35694 ft | 439 kts | 327° |
| 2026-04-30 20:50 | 55.81680 | 36.52075 | 35958 ft | 439 kts | 327° |
| 2026-04-30 20:50 | 55.84174 | 36.48925 | 36206 ft | 439 kts | 327° |
| 2026-04-30 20:51 | 55.86638 | 36.45810 | 36456 ft | 439 kts | 327° |
| 2026-04-30 20:51 | 55.91733 | 36.39689 | 36943 ft | 439 kts | 329° |
| 2026-04-30 20:51 | 55.94301 | 36.36730 | 37174 ft | 439 kts | 329° |
| 2026-04-30 20:52 | 55.96831 | 36.33803 | 37398 ft | 439 kts | 329° |
| 2026-04-30 20:52 | 55.99393 | 36.30815 | 37627 ft | 440 kts | 329° |
| 2026-04-30 20:52 | 56.04503 | 36.24805 | 38070 ft | 440 kts | 328° |
| 2026-04-30 20:53 | 56.07054 | 36.21792 | 38210 ft | 440 kts | 328° |
| 2026-04-30 20:53 | 56.12008 | 36.15396 | 38221 ft | 440 kts | 320° |
| 2026-04-30 20:54 | 56.18075 | 36.05604 | 38222 ft | 440 kts | 321° |
| 2026-04-30 20:55 | 56.24925 | 35.94644 | 38223 ft | 439 kts | 321° |
| 2026-04-30 20:55 | 56.29471 | 35.87292 | 38217 ft | 439 kts | 320° |
| 2026-04-30 20:56 | 56.36271 | 35.76238 | 38218 ft | 438 kts | 320° |
| 2026-04-30 20:57 | 56.43051 | 35.65165 | 38215 ft | 438 kts | 320° |
| 2026-04-30 20:57 | 56.47569 | 35.57754 | 38216 ft | 438 kts | 320° |
| 2026-04-30 20:58 | 56.54337 | 35.46606 | 38225 ft | 440 kts | 320° |
| 2026-04-30 20:58 | 56.58998 | 35.39253 | 38226 ft | 448 kts | 326° |
| 2026-04-30 20:59 | 56.66497 | 35.28940 | 38220 ft | 455 kts | 325° |
| 2026-04-30 21:00 | 56.76548 | 35.14977 | 38224 ft | 454 kts | 325° |
| 2026-04-30 21:01 | 56.84087 | 35.04453 | 38220 ft | 454 kts | 325° |
| 2026-04-30 21:02 | 56.91646 | 34.93962 | 38216 ft | 453 kts | 329° |
| 2026-04-30 21:02 | 56.96922 | 34.87690 | 38217 ft | 453 kts | 329° |
| 2026-04-30 21:03 | 57.02201 | 34.81360 | 38222 ft | 452 kts | 329° |
| 2026-04-30 21:03 | 57.07432 | 34.75072 | 38222 ft | 452 kts | 329° |
| 2026-04-30 21:04 | 57.12691 | 34.68737 | 38218 ft | 451 kts | 329° |
| 2026-04-30 21:04 | 57.20568 | 34.59207 | 38215 ft | 450 kts | 329° |
| 2026-04-30 21:05 | 57.25797 | 34.52854 | 38210 ft | 450 kts | 329° |
| 2026-04-30 21:05 | 57.31020 | 34.46486 | 38208 ft | 449 kts | 329° |
| 2026-04-30 21:06 | 57.36230 | 34.40111 | 38215 ft | 449 kts | 329° |
| 2026-04-30 21:06 | 57.41444 | 34.33710 | 38209 ft | 448 kts | 329° |
| 2026-04-30 21:07 | 57.46601 | 34.27356 | 38203 ft | 448 kts | 329° |
| 2026-04-30 21:07 | 57.51789 | 34.20943 | 38202 ft | 447 kts | 330° |
| 2026-04-30 21:08 | 57.56966 | 34.14521 | 38199 ft | 447 kts | 330° |
| 2026-04-30 21:08 | 57.62130 | 34.08092 | 38196 ft | 446 kts | 330° |
| 2026-04-30 21:09 | 57.67290 | 34.01648 | 38192 ft | 445 kts | 330° |
| 2026-04-30 21:09 | 57.72436 | 33.95197 | 38192 ft | 445 kts | 330° |
| 2026-04-30 21:10 | 57.77538 | 33.88779 | 38196 ft | 444 kts | 330° |
| 2026-04-30 21:10 | 57.82656 | 33.82319 | 38195 ft | 443 kts | 330° |
| 2026-04-30 21:11 | 57.87723 | 33.75720 | 38194 ft | 444 kts | 326° |
| 2026-04-30 21:11 | 57.92530 | 33.68397 | 38187 ft | 444 kts | 325° |
| 2026-04-30 21:12 | 57.97361 | 33.61107 | 38188 ft | 444 kts | 325° |
| 2026-04-30 21:12 | 58.02167 | 33.53798 | 38186 ft | 443 kts | 325° |
| 2026-04-30 21:13 | 58.06926 | 33.46515 | 38186 ft | 443 kts | 325° |
| 2026-04-30 21:13 | 58.11707 | 33.39170 | 38184 ft | 442 kts | 325° |
| 2026-04-30 21:14 | 58.16477 | 33.31815 | 38187 ft | 442 kts | 325° |
| 2026-04-30 21:14 | 58.21243 | 33.24443 | 38009 ft | 441 kts | 325° |
| 2026-04-30 21:15 | 58.23592 | 33.20796 | 37737 ft | 431 kts | 326° |
| 2026-04-30 21:15 | 58.25882 | 33.17232 | 37470 ft | 420 kts | 326° |
| 2026-04-30 21:15 | 58.28117 | 33.13750 | 37201 ft | 411 kts | 326° |
| 2026-04-30 21:15 | 58.30335 | 33.10298 | 36948 ft | 414 kts | 326° |
| 2026-04-30 21:16 | 58.32557 | 33.06840 | 36606 ft | 420 kts | 326° |
| 2026-04-30 21:16 | 58.34827 | 33.03298 | 36063 ft | 422 kts | 326° |
| 2026-04-30 21:16 | 58.37094 | 32.99747 | 35369 ft | 423 kts | 327° |
| 2026-04-30 21:16 | 58.39370 | 32.96172 | 34645 ft | 423 kts | 327° |
| 2026-04-30 21:17 | 58.41632 | 32.92608 | 33903 ft | 421 kts | 327° |
| 2026-04-30 21:17 | 58.43885 | 32.89055 | 33114 ft | 418 kts | 327° |
| 2026-04-30 21:17 | 58.46113 | 32.85536 | 32422 ft | 414 kts | 328° |
| 2026-04-30 21:17 | 58.48323 | 32.82040 | 31731 ft | 410 kts | 328° |
| 2026-04-30 21:18 | 58.50509 | 32.78578 | 31200 ft | 403 kts | 328° |
| 2026-04-30 21:18 | 58.52647 | 32.75181 | 30708 ft | 396 kts | 328° |
| 2026-04-30 21:18 | 58.54751 | 32.71836 | 30194 ft | 389 kts | 329° |
| 2026-04-30 21:18 | 58.56812 | 32.68559 | 29655 ft | 381 kts | 329° |
| 2026-04-30 21:19 | 58.58829 | 32.65347 | 29147 ft | 373 kts | 329° |
| 2026-04-30 21:19 | 58.60806 | 32.62195 | 28652 ft | 366 kts | 329° |
| 2026-04-30 21:19 | 58.62744 | 32.59102 | 28170 ft | 359 kts | 329° |
| 2026-04-30 21:19 | 58.64645 | 32.56063 | 27698 ft | 352 kts | 329° |
| 2026-04-30 21:20 | 58.66512 | 32.53075 | 27230 ft | 346 kts | 329° |
| 2026-04-30 21:20 | 58.68321 | 32.50176 | 26769 ft | 340 kts | 329° |
| 2026-04-30 21:20 | 58.70175 | 32.47216 | 26311 ft | 352 kts | 329° |
| 2026-04-30 21:20 | 58.72098 | 32.44168 | 25835 ft | 370 kts | 329° |
| 2026-04-30 21:21 | 58.74093 | 32.40974 | 25318 ft | 375 kts | 328° |
| 2026-04-30 21:21 | 58.76089 | 32.37745 | 24810 ft | 373 kts | 328° |
| 2026-04-30 21:21 | 58.80000 | 32.31387 | 23803 ft | 362 kts | 328° |
| 2026-04-30 21:22 | 58.81918 | 32.28271 | 23254 ft | 355 kts | 328° |
| 2026-04-30 21:22 | 58.87402 | 32.19348 | 21828 ft | 333 kts | 328° |
| 2026-04-30 21:23 | 58.89159 | 32.16487 | 21363 ft | 327 kts | 328° |
| 2026-04-30 21:23 | 58.90882 | 32.13678 | 20906 ft | 321 kts | 327° |
| 2026-04-30 21:23 | 58.94237 | 32.08199 | 20020 ft | 312 kts | 327° |
| 2026-04-30 21:24 | 58.95885 | 32.05501 | 19575 ft | 310 kts | 327° |
| 2026-04-30 21:24 | 58.97620 | 32.02687 | 19113 ft | 338 kts | 327° |
| 2026-04-30 21:24 | 58.99466 | 31.99685 | 18623 ft | 351 kts | 326° |
| 2026-04-30 21:24 | 59.01336 | 31.96608 | 18074 ft | 353 kts | 326° |
| 2026-04-30 21:25 | 59.05016 | 31.90500 | 17082 ft | 341 kts | 325° |
| 2026-04-30 21:25 | 59.06799 | 31.87540 | 16572 ft | 334 kts | 325° |
| 2026-04-30 21:25 | 59.08553 | 31.84630 | 16099 ft | 327 kts | 325° |
| 2026-04-30 21:26 | 59.11883 | 31.78807 | 15170 ft | 318 kts | 321° |
| 2026-04-30 21:26 | 59.13437 | 31.75856 | 14715 ft | 314 kts | 321° |
| 2026-04-30 21:27 | 59.16530 | 31.70017 | 13805 ft | 306 kts | 321° |
| 2026-04-30 21:27 | 59.18043 | 31.67153 | 13389 ft | 300 kts | 321° |
| 2026-04-30 21:27 | 59.19552 | 31.64295 | 13234 ft | 313 kts | 321° |
| 2026-04-30 21:28 | 59.22734 | 31.58260 | 12930 ft | 320 kts | 321° |
| 2026-04-30 21:28 | 59.24338 | 31.55200 | 12182 ft | 326 kts | 320° |
| 2026-04-30 21:28 | 59.27641 | 31.48889 | 10662 ft | 331 kts | 320° |
| 2026-04-30 21:29 | 59.29250 | 31.45790 | 10468 ft | 317 kts | 320° |
| 2026-04-30 21:29 | 59.33630 | 31.37329 | 10067 ft | 274 kts | 320° |
| 2026-04-30 21:30 | 59.36305 | 31.32180 | 9291 ft | 267 kts | 320° |
| 2026-04-30 21:31 | 59.40175 | 31.24708 | 8273 ft | 256 kts | 319° |
| 2026-04-30 21:31 | 59.42672 | 31.19865 | 7610 ft | 249 kts | 319° |
| 2026-04-30 21:32 | 59.45113 | 31.15121 | 6958 ft | 244 kts | 318° |
| 2026-04-30 21:32 | 59.46314 | 31.12785 | 6640 ft | 241 kts | 318° |
| 2026-04-30 21:32 | 59.47502 | 31.10469 | 6303 ft | 239 kts | 318° |
| 2026-04-30 21:32 | 59.48676 | 31.08178 | 5985 ft | 236 kts | 318° |
| 2026-04-30 21:33 | 59.49839 | 31.05906 | 5676 ft | 234 kts | 317° |
| 2026-04-30 21:33 | 59.52113 | 31.01348 | 5217 ft | 245 kts | 313° |
| 2026-04-30 21:33 | 59.53239 | 30.98756 | 5180 ft | 253 kts | 313° |
| 2026-04-30 21:34 | 59.54386 | 30.96132 | 5181 ft | 252 kts | 313° |
| 2026-04-30 21:34 | 59.56680 | 30.90887 | 5162 ft | 251 kts | 313° |
| 2026-04-30 21:34 | 59.57815 | 30.88284 | 4921 ft | 250 kts | 313° |
| 2026-04-30 21:35 | 59.58899 | 30.85797 | 4559 ft | 250 kts | 313° |
| 2026-04-30 21:35 | 59.60034 | 30.83188 | 4155 ft | 250 kts | 313° |
| 2026-04-30 21:35 | 59.61166 | 30.80586 | 3752 ft | 250 kts | 313° |
| 2026-04-30 21:35 | 59.62297 | 30.77982 | 3372 ft | 249 kts | 313° |
| 2026-04-30 21:36 | 59.63424 | 30.75383 | 2986 ft | 249 kts | 312° |
| 2026-04-30 21:36 | 59.64548 | 30.72789 | 2640 ft | 247 kts | 312° |
| 2026-04-30 21:37 | 59.68218 | 30.65722 | 2501 ft | 246 kts | 327° |
| 2026-04-30 21:37 | 59.69621 | 30.63798 | 2499 ft | 243 kts | 326° |
| 2026-04-30 21:37 | 59.70965 | 30.61929 | 2498 ft | 228 kts | 326° |
| 2026-04-30 21:37 | 59.71800 | 30.60761 | 2501 ft | 216 kts | 326° |
| 2026-04-30 21:38 | 59.72980 | 30.59105 | 2499 ft | 199 kts | 326° |
| 2026-04-30 21:38 | 59.74029 | 30.57472 | 2496 ft | 185 kts | 316° |
| 2026-04-30 21:38 | 59.74766 | 30.55450 | 2514 ft | 185 kts | 301° |
| 2026-04-30 21:38 | 59.75413 | 30.52360 | 2510 ft | 185 kts | 291° |
| 2026-04-30 21:39 | 59.75680 | 30.50716 | 2495 ft | 183 kts | 290° |
| 2026-04-30 21:39 | 59.76020 | 30.48449 | 2323 ft | 163 kts | 290° |
| 2026-04-30 21:39 | 59.76326 | 30.46408 | 2078 ft | 150 kts | 290° |
| 2026-04-30 21:39 | 59.76613 | 30.44488 | 1864 ft | 140 kts | 290° |
| 2026-04-30 21:40 | 59.76883 | 30.42680 | 1678 ft | 132 kts | 290° |
| 2026-04-30 21:40 | 59.77133 | 30.41003 | 1486 ft | 125 kts | 290° |
| 2026-04-30 21:40 | 59.77382 | 30.39338 | 1312 ft | 124 kts | 289° |
| 2026-04-30 21:40 | 59.77626 | 30.37705 | 1136 ft | 124 kts | 289° |
| 2026-04-30 21:41 | 59.77869 | 30.36074 | 952 ft | 124 kts | 288° |
| 2026-04-30 21:41 | 59.78114 | 30.34432 | 771 ft | 124 kts | 287° |
| 2026-04-30 21:41 | 59.78355 | 30.32807 | 602 ft | 124 kts | 287° |
| 2026-04-30 21:41 | 59.78605 | 30.31219 | 772 ft | 121 kts | 288° |
| 2026-04-30 21:42 | 59.78881 | 30.29515 | 1334 ft | 142 kts | 291° |
| 2026-04-30 21:42 | 59.79253 | 30.27511 | 1934 ft | 166 kts | 296° |
| 2026-04-30 21:42 | 59.79760 | 30.25334 | 2542 ft | 186 kts | 299° |
| 2026-04-30 21:42 | 59.80068 | 30.22729 | 3233 ft | 213 kts | 262° |
| 2026-04-30 21:43 | 59.79151 | 30.20092 | 3274 ft | 265 kts | 216° |
| 2026-04-30 21:43 | 59.77409 | 30.18912 | 3146 ft | 247 kts | 191° |
| 2026-04-30 21:43 | 59.75871 | 30.18445 | 3458 ft | 204 kts | 187° |
| 2026-04-30 21:43 | 59.74520 | 30.18783 | 3143 ft | 198 kts | 154° |
| 2026-04-30 21:44 | 59.73495 | 30.20557 | 2650 ft | 198 kts | 117° |
| 2026-04-30 21:44 | 59.73051 | 30.23216 | 2624 ft | 206 kts | 100° |
| 2026-04-30 21:44 | 59.72687 | 30.25963 | 2664 ft | 206 kts | 102° |
| 2026-04-30 21:44 | 59.72300 | 30.28707 | 2710 ft | 207 kts | 102° |
| 2026-04-30 21:45 | 59.71905 | 30.31457 | 2765 ft | 207 kts | 102° |
| 2026-04-30 21:45 | 59.71509 | 30.34206 | 2807 ft | 207 kts | 102° |
| 2026-04-30 21:45 | 59.71114 | 30.36956 | 2867 ft | 208 kts | 102° |
| 2026-04-30 21:45 | 59.70719 | 30.39708 | 2901 ft | 208 kts | 102° |
| 2026-04-30 21:46 | 59.70326 | 30.42441 | 2818 ft | 204 kts | 102° |
| 2026-04-30 21:46 | 59.69933 | 30.45139 | 2553 ft | 204 kts | 103° |
| 2026-04-30 21:46 | 59.69536 | 30.47858 | 2493 ft | 206 kts | 103° |
| 2026-04-30 21:46 | 59.69139 | 30.50586 | 2499 ft | 207 kts | 103° |
| 2026-04-30 21:47 | 59.68741 | 30.53323 | 2499 ft | 207 kts | 103° |
| 2026-04-30 21:47 | 59.68344 | 30.56057 | 2495 ft | 206 kts | 103° |
| 2026-04-30 21:47 | 59.67970 | 30.58772 | 2494 ft | 206 kts | 102° |
| 2026-04-30 21:47 | 59.67662 | 30.61529 | 2494 ft | 204 kts | 89° |
| 2026-04-30 21:48 | 59.68038 | 30.64124 | 2499 ft | 197 kts | 52° |
| 2026-04-30 21:48 | 59.69003 | 30.66027 | 2493 ft | 196 kts | 37° |
| 2026-04-30 21:48 | 59.70235 | 30.66988 | 2498 ft | 193 kts | 1° |
| 2026-04-30 21:48 | 59.71536 | 30.66400 | 2499 ft | 194 kts | 338° |
| 2026-04-30 21:49 | 59.72655 | 30.65020 | 2493 ft | 181 kts | 320° |
| 2026-04-30 21:49 | 59.73477 | 30.63127 | 2488 ft | 184 kts | 305° |
| 2026-04-30 21:49 | 59.74053 | 30.60876 | 2377 ft | 184 kts | 294° |
| 2026-04-30 21:49 | 59.74426 | 30.58446 | 2148 ft | 184 kts | 286° |
| 2026-04-30 21:50 | 59.74661 | 30.55937 | 1800 ft | 184 kts | 281° |
| 2026-04-30 21:50 | 59.74827 | 30.53437 | 1341 ft | 181 kts | 279° |
| 2026-04-30 21:50 | 59.75000 | 30.51009 | 920 ft | 173 kts | 280° |
| 2026-04-30 21:50 | 59.75432 | 30.48800 | 1035 ft | 179 kts | 305° |
| 2026-04-30 21:51 | 59.76067 | 30.46780 | 1252 ft | 169 kts | 292° |
| 2026-04-30 21:51 | 59.76487 | 30.44457 | 1506 ft | 180 kts | 295° |
| 2026-04-30 21:51 | 59.76955 | 30.42303 | 1389 ft | 162 kts | 292° |
| 2026-04-30 21:51 | 59.77287 | 30.40312 | 1223 ft | 141 kts | 289° |
| 2026-04-30 21:52 | 59.77526 | 30.38516 | 1084 ft | 134 kts | 284° |
| 2026-04-30 21:52 | 59.77761 | 30.36740 | 896 ft | 133 kts | 289° |
| 2026-04-30 21:52 | 59.78033 | 30.34992 | 685 ft | 132 kts | 286° |
| 2026-04-30 21:52 | 59.78300 | 30.33251 | 567 ft | 132 kts | 287° |
| 2026-04-30 21:53 | 59.78571 | 30.31499 | 383 ft | 133 kts | 285° |
| 2026-04-30 21:53 | 59.78814 | 30.29742 | 224 ft | 132 kts | 286° |
| 2026-04-30 21:53 | 59.79074 | 30.28008 | 121 ft | 131 kts | 285° |
| 2026-04-30 21:53 | 59.79337 | 30.26321 | 85 ft | 119 kts | 286° |
| 2026-04-30 21:54 | 59.79538 | 30.24897 | 84 ft | 86 kts | 285° |
| 2026-04-30 21:54 | 59.79678 | 30.23950 | 85 ft | 67 kts | 286° |
| 2026-04-30 21:54 | 59.79789 | 30.23312 | 84 ft | 32 kts | 305° |
| 2026-04-30 21:54 | 59.79926 | 30.23038 | 83 ft | 8 kts | 349° |